Arroyo, Texas
Current Conditions -  °F | °C
As of 10:52 PM on Friday 19 Dec 2014 (Local Time) from KHRL Reporting Station
Overcast Overcast  
Wind Chill: 61°   Ceiling: 1700
Heat Index: 61°   Visibility: 10mi
Dew Point: 57°   Wind: 8mph
Humidity: 87%   Direction: 340°NNW
Pressure: 30.1"   Gusts: NA
Location:  26.2089°N, 97.6849°W
Report Text: KHRL 200452Z 34007KT 10SM OVC017 16/14 A3010 RMK AO2 SLP192 T01610139
Loading
Personal Weather Stations






























Interactive Weather Map New forecast layout! Learn more

10-Day Weather Forecast

Advertisements
Track Severe Weather on mobile